createdAt,value
2019-02-14T00:00:20.502Z,68.95
2019-02-14T00:02:48.678Z,69.01
2019-02-14T00:05:16.934Z,68.96
2019-02-14T00:07:45.159Z,69.00
2019-02-14T00:10:13.341Z,69.15
2019-02-14T00:12:41.527Z,69.10
2019-02-14T00:15:13.771Z,69.37
2019-02-14T00:17:41.961Z,69.63
2019-02-14T00:20:10.313Z,69.48
2019-02-14T00:22:38.538Z,69.48
2019-02-14T00:25:07.177Z,69.49
2019-02-14T00:27:35.558Z,69.45
2019-02-14T00:30:03.928Z,69.37
2019-02-14T00:32:32.149Z,69.36
2019-02-14T00:35:00.347Z,69.20
2019-02-14T00:37:28.762Z,69.24
2019-02-14T00:39:57.162Z,69.37
2019-02-14T00:42:25.563Z,69.49
2019-02-14T00:44:54.016Z,69.63
2019-02-14T00:47:22.407Z,69.42
2019-02-14T00:49:50.803Z,69.36
2019-02-14T00:52:19.246Z,69.49
2019-02-14T00:54:47.647Z,69.47
2019-02-14T00:57:16.063Z,69.34
2019-02-14T00:59:44.551Z,69.45
2019-02-14T01:02:12.944Z,69.60
2019-02-14T01:04:41.333Z,69.49
2019-02-14T01:07:09.735Z,69.63
2019-02-14T01:09:38.251Z,69.74
2019-02-14T01:12:08.320Z,69.81
2019-02-14T01:14:36.714Z,69.74
2019-02-14T01:17:05.099Z,69.96
2019-02-14T01:19:33.493Z,69.71
2019-02-14T01:22:01.937Z,69.84
2019-02-14T01:24:30.419Z,69.86
2019-02-14T01:26:58.804Z,69.98
2019-02-14T01:29:27.199Z,70.03
2019-02-14T01:31:55.660Z,69.77
2019-02-14T01:34:24.139Z,69.82
2019-02-14T01:36:52.535Z,69.89
2019-02-14T01:39:20.927Z,70.03
2019-02-14T01:41:49.326Z,70.12
2019-02-14T01:44:17.717Z,70.13
2019-02-14T01:46:46.108Z,70.02
2019-02-14T01:49:14.517Z,69.99
2019-02-14T01:51:42.914Z,70.08
2019-02-14T01:54:11.319Z,70.25
2019-02-14T01:56:39.715Z,70.23
2019-02-14T01:59:08.121Z,70.25
2019-02-14T02:01:36.522Z,70.34
2019-02-14T02:04:04.930Z,70.40
2019-02-14T02:06:33.385Z,70.54
2019-02-14T02:09:01.848Z,70.34
2019-02-14T02:11:30.435Z,70.27
2019-02-14T02:13:58.867Z,70.39
2019-02-14T02:16:27.272Z,70.62
2019-02-14T02:18:55.731Z,70.25
2019-02-14T02:21:24.184Z,70.47
2019-02-14T02:23:52.702Z,70.38
2019-02-14T02:26:21.163Z,70.29
2019-02-14T02:28:49.556Z,70.32
2019-02-14T02:31:17.941Z,70.42
2019-02-14T02:33:46.369Z,70.29
2019-02-14T02:36:14.756Z,70.28
2019-02-14T02:38:43.151Z,70.46
2019-02-14T02:41:11.548Z,70.46
2019-02-14T02:43:40.134Z,70.48
2019-02-14T02:46:08.524Z,70.31
2019-02-14T02:48:36.932Z,70.62
2019-02-14T02:51:05.327Z,70.60
2019-02-14T02:53:33.719Z,70.40
2019-02-14T02:56:02.115Z,70.60
2019-02-14T02:58:30.510Z,70.49
2019-02-14T03:00:58.905Z,70.55
2019-02-14T03:03:27.318Z,70.66
2019-02-14T03:05:55.710Z,70.43
2019-02-14T03:08:24.177Z,70.49
2019-02-14T03:10:54.139Z,70.62
2019-02-14T03:13:22.642Z,70.73
2019-02-14T03:15:51.041Z,70.69
2019-02-14T03:18:19.431Z,70.75
2019-02-14T03:20:47.841Z,70.82
2019-02-14T03:23:16.284Z,70.84
2019-02-14T03:25:44.686Z,70.78
2019-02-14T03:28:13.087Z,70.93
2019-02-14T03:30:41.556Z,70.86
2019-02-14T03:33:10.018Z,71.05
2019-02-14T03:35:38.413Z,71.20
2019-02-14T03:38:06.801Z,71.07
2019-02-14T03:40:35.564Z,71.28
2019-02-14T03:43:03.964Z,71.27
2019-02-14T03:45:32.369Z,71.40
2019-02-14T03:48:00.913Z,71.39
2019-02-14T03:50:29.310Z,71.50
2019-02-14T03:52:57.861Z,71.56
2019-02-14T03:55:26.256Z,71.53
2019-02-14T03:57:54.650Z,71.67
2019-02-14T04:00:23.040Z,71.58
2019-02-14T04:02:51.483Z,71.54
2019-02-14T04:05:20.100Z,71.51
2019-02-14T04:07:48.496Z,71.52
2019-02-14T04:10:16.976Z,71.46
2019-02-14T04:12:45.348Z,71.48
2019-02-14T04:15:16.090Z,71.45
2019-02-14T04:17:44.552Z,71.61
2019-02-14T04:20:13.955Z,71.59
2019-02-14T04:22:42.333Z,71.53
2019-02-14T04:25:11.006Z,71.49
2019-02-14T04:27:39.599Z,71.56
2019-02-14T04:30:11.041Z,71.55
2019-02-14T04:32:39.428Z,71.69
2019-02-14T04:35:08.000Z,71.68
2019-02-14T04:37:36.393Z,71.74
2019-02-14T04:40:07.970Z,71.69
2019-02-14T04:42:36.376Z,71.70
2019-02-14T04:45:06.714Z,71.66
2019-02-14T04:47:35.213Z,71.92
2019-02-14T04:50:03.985Z,71.66
2019-02-14T04:52:32.381Z,71.67
2019-02-14T04:55:00.780Z,71.72
2019-02-14T04:57:29.173Z,71.66
2019-02-14T04:59:57.561Z,71.63
2019-02-14T05:02:26.007Z,71.73
2019-02-14T05:04:54.496Z,71.93
2019-02-14T05:07:22.896Z,71.90
2019-02-14T05:09:51.303Z,71.72
2019-02-14T05:12:19.742Z,72.02
2019-02-14T05:14:48.133Z,71.87
2019-02-14T05:17:16.528Z,71.86
2019-02-14T05:19:44.949Z,71.89
2019-02-14T05:22:13.493Z,71.81
2019-02-14T05:24:41.865Z,71.80
2019-02-14T05:27:10.261Z,72.01
2019-02-14T05:29:38.672Z,71.99
2019-02-14T05:32:07.576Z,71.90
2019-02-14T05:34:35.988Z,71.87
2019-02-14T05:37:04.441Z,71.90
2019-02-14T05:39:32.866Z,72.08
2019-02-14T05:42:01.267Z,71.97
2019-02-14T05:44:29.664Z,72.20
2019-02-14T05:46:58.066Z,72.06
2019-02-14T05:49:26.556Z,72.09
2019-02-14T05:51:54.965Z,71.93
2019-02-14T05:54:23.355Z,72.13
2019-02-14T05:56:51.760Z,72.06
2019-02-14T05:59:20.148Z,72.13
2019-02-14T06:01:48.633Z,71.95
2019-02-14T06:04:17.038Z,71.95
2019-02-14T06:06:45.425Z,72.15
2019-02-14T06:09:13.865Z,72.39
2019-02-14T06:11:42.272Z,72.29
2019-02-14T06:14:10.666Z,72.24
2019-02-14T06:16:39.063Z,72.62
2019-02-14T06:19:07.462Z,72.68
2019-02-14T06:21:35.855Z,72.78
2019-02-14T06:24:04.248Z,72.89
2019-02-14T06:26:32.662Z,72.87
2019-02-14T06:29:01.042Z,73.01
2019-02-14T06:31:29.529Z,73.00
2019-02-14T06:33:57.955Z,72.85
2019-02-14T06:36:26.454Z,72.89
2019-02-14T06:38:54.842Z,72.87
2019-02-14T06:41:23.242Z,73.02
2019-02-14T06:43:51.696Z,73.03
2019-02-14T06:46:20.041Z,73.09
2019-02-14T06:48:48.530Z,72.99
2019-02-14T06:51:16.923Z,72.91
2019-02-14T06:53:45.324Z,72.75
2019-02-14T06:56:13.726Z,72.83
2019-02-14T06:58:42.117Z,72.96
2019-02-14T07:01:10.628Z,73.15
2019-02-14T07:03:39.033Z,73.13
2019-02-14T07:06:07.548Z,73.07
2019-02-14T07:08:35.950Z,73.02
2019-02-14T07:11:04.332Z,73.03
2019-02-14T07:13:32.731Z,73.03
2019-02-14T07:16:01.217Z,72.99
2019-02-14T07:18:29.633Z,72.99
2019-02-14T07:20:58.081Z,73.09
2019-02-14T07:23:26.547Z,72.98
2019-02-14T07:25:54.948Z,72.90
2019-02-14T07:28:23.351Z,72.96
2019-02-14T07:30:51.893Z,72.90
2019-02-14T07:33:20.289Z,72.88
2019-02-14T07:35:48.764Z,72.83
2019-02-14T07:38:17.161Z,72.90
2019-02-14T07:40:45.551Z,72.96
2019-02-14T07:43:13.944Z,73.00
2019-02-14T07:45:42.338Z,72.95
2019-02-14T07:48:10.731Z,73.12
2019-02-14T07:50:39.141Z,73.07
2019-02-14T07:53:07.532Z,73.04
2019-02-14T07:55:35.921Z,73.04
2019-02-14T07:58:04.316Z,73.07
2019-02-14T08:00:32.735Z,73.03
2019-02-14T08:03:01.137Z,72.89
2019-02-14T08:05:29.529Z,72.90
2019-02-14T08:07:57.924Z,72.89
2019-02-14T08:10:26.316Z,72.97
2019-02-14T08:12:54.716Z,72.82
2019-02-14T08:15:23.115Z,72.87
2019-02-14T08:17:51.512Z,72.80
2019-02-14T08:20:21.240Z,72.64
2019-02-14T08:22:49.712Z,72.70
2019-02-14T08:25:18.101Z,72.75
2019-02-14T08:27:46.667Z,72.58
2019-02-14T08:30:18.165Z,72.71
2019-02-14T08:32:46.553Z,72.47
2019-02-14T08:35:14.986Z,72.35
2019-02-14T08:37:45.962Z,72.47
2019-02-14T08:40:25.052Z,72.33
2019-02-14T08:42:53.543Z,72.18
2019-02-14T08:45:22.004Z,72.13
2019-02-14T08:47:50.396Z,71.71
2019-02-14T08:50:18.802Z,71.77
2019-02-14T08:52:47.203Z,71.86
2019-02-14T08:55:15.598Z,71.87
2019-02-14T08:57:43.988Z,71.69
2019-02-14T09:00:17.189Z,71.35
2019-02-14T09:02:45.582Z,71.05
2019-02-14T09:05:14.037Z,71.21
2019-02-14T09:07:42.447Z,71.03
2019-02-14T09:10:13.913Z,70.57
2019-02-14T09:12:42.303Z,70.58
2019-02-14T09:15:13.304Z,70.40
2019-02-14T09:17:41.684Z,70.36
2019-02-14T09:20:12.518Z,69.95
2019-02-14T09:22:40.912Z,69.58
2019-02-14T09:25:09.367Z,69.35
2019-02-14T09:27:37.776Z,69.30
2019-02-14T09:30:14.147Z,69.51
2019-02-14T09:32:42.710Z,69.41
2019-02-14T09:35:11.249Z,69.12
2019-02-14T09:37:39.641Z,69.22
2019-02-14T09:40:13.186Z,68.85
2019-02-14T09:42:41.652Z,68.38
2019-02-14T09:45:12.216Z,68.39
2019-02-14T09:47:40.588Z,68.00
2019-02-14T09:50:11.224Z,67.88
2019-02-14T09:52:40.352Z,67.94
2019-02-14T09:55:10.887Z,68.14
2019-02-14T09:57:39.469Z,67.65
2019-02-14T10:00:10.952Z,67.40
2019-02-14T10:02:39.338Z,67.63
2019-02-14T10:05:09.114Z,67.38
2019-02-14T10:07:37.471Z,67.14
2019-02-14T10:10:08.902Z,67.20
2019-02-14T10:12:37.333Z,67.46
2019-02-14T10:15:07.504Z,67.65
2019-02-14T10:17:35.899Z,67.17
2019-02-14T10:20:06.716Z,66.90
2019-02-14T10:22:35.105Z,67.36
2019-02-14T10:25:03.967Z,67.68
2019-02-14T10:27:32.375Z,66.92
2019-02-14T10:30:00.772Z,65.99
2019-02-14T10:32:29.226Z,66.28
2019-02-14T10:34:57.611Z,66.28
2019-02-14T10:37:26.004Z,66.77
2019-02-14T10:39:54.389Z,65.44
2019-02-14T10:42:22.840Z,65.79
2019-02-14T10:44:51.228Z,65.07
2019-02-14T10:47:19.611Z,64.69
2019-02-14T10:49:48.031Z,64.72
2019-02-14T10:52:16.415Z,64.42
2019-02-14T10:54:44.800Z,64.49
2019-02-14T10:57:13.194Z,63.20
2019-02-14T10:59:41.614Z,63.72
2019-02-14T11:02:12.582Z,64.18
2019-02-14T11:04:40.973Z,63.52
2019-02-14T11:07:09.363Z,64.11
2019-02-14T11:09:37.750Z,63.75
2019-02-14T11:12:06.134Z,63.02
2019-02-14T11:14:34.519Z,63.27
2019-02-14T11:17:02.916Z,63.63
2019-02-14T11:19:31.308Z,63.39
2019-02-14T11:21:59.695Z,63.39
2019-02-14T11:24:28.088Z,62.44
2019-02-14T11:26:56.473Z,62.62
2019-02-14T11:29:24.861Z,61.99
2019-02-14T11:31:53.247Z,61.39
2019-02-14T11:34:21.633Z,60.56
2019-02-14T11:36:50.022Z,59.65
2019-02-14T11:39:18.419Z,60.41
2019-02-14T11:41:46.813Z,59.85
2019-02-14T11:44:15.200Z,59.96
2019-02-14T11:46:51.325Z,59.18
2019-02-14T11:49:13.703Z,59.67
2019-02-14T11:51:42.091Z,59.67
2019-02-14T11:54:10.748Z,58.96
2019-02-14T11:56:39.160Z,57.37
2019-02-14T11:59:07.561Z,57.54
2019-02-14T12:01:35.942Z,57.17
2019-02-14T12:04:04.412Z,57.63
2019-02-14T12:06:32.812Z,58.20
2019-02-14T12:09:01.252Z,58.19
2019-02-14T12:11:29.671Z,57.55
2019-02-14T12:13:58.054Z,57.53
2019-02-14T12:16:26.443Z,58.04
2019-02-14T12:18:54.829Z,56.16
2019-02-14T12:21:23.231Z,56.89
2019-02-14T12:23:51.611Z,55.70
2019-02-14T12:26:20.004Z,57.42
2019-02-14T12:28:48.488Z,57.93
2019-02-14T12:31:18.578Z,58.18
2019-02-14T12:33:47.231Z,57.64
2019-02-14T12:36:15.622Z,57.96
2019-02-14T12:38:44.012Z,57.94
2019-02-14T12:41:12.425Z,58.01
2019-02-14T12:43:40.892Z,57.66
2019-02-14T12:46:09.363Z,57.23
2019-02-14T12:48:37.746Z,56.83
2019-02-14T12:51:06.136Z,56.67
2019-02-14T12:53:34.596Z,56.93
2019-02-14T12:56:02.992Z,56.77
2019-02-14T12:58:33.749Z,56.96
2019-02-14T13:01:01.495Z,56.74
2019-02-14T13:03:29.883Z,56.73
2019-02-14T13:05:58.281Z,56.87
2019-02-14T13:08:26.669Z,56.02
2019-02-14T13:10:55.060Z,55.81
2019-02-14T13:13:23.441Z,55.28
2019-02-14T13:15:51.841Z,55.39
2019-02-14T13:18:20.229Z,56.08
2019-02-14T13:20:48.616Z,56.40
2019-02-14T13:23:17.077Z,55.18
2019-02-14T13:25:45.468Z,54.85
2019-02-14T13:28:13.927Z,54.95
2019-02-14T13:30:42.321Z,54.97
2019-02-14T13:33:10.718Z,55.41
2019-02-14T13:35:39.131Z,55.61
2019-02-14T13:38:07.487Z,55.48
2019-02-14T13:40:35.872Z,55.30
2019-02-14T13:43:04.256Z,55.97
2019-02-14T13:45:32.667Z,55.14
2019-02-14T13:48:01.060Z,55.84
2019-02-14T13:50:29.458Z,54.93
2019-02-14T13:52:57.858Z,55.84
2019-02-14T13:55:28.285Z,55.85
2019-02-14T13:57:56.376Z,55.90
2019-02-14T14:00:29.079Z,55.62
2019-02-14T14:02:57.463Z,55.84
2019-02-14T14:05:25.876Z,55.42
2019-02-14T14:07:54.238Z,55.52
2019-02-14T14:10:22.630Z,55.31
2019-02-14T14:12:51.025Z,55.16
2019-02-14T14:15:19.407Z,55.01
2019-02-14T14:17:47.809Z,55.45
2019-02-14T14:20:16.199Z,55.05
2019-02-14T14:22:44.583Z,55.24
2019-02-14T14:25:12.977Z,55.29
2019-02-14T14:27:41.374Z,55.24
2019-02-14T14:30:11.529Z,55.26
2019-02-14T14:32:39.924Z,55.54
2019-02-14T14:35:10.903Z,55.61
2019-02-14T14:37:39.683Z,55.45
2019-02-14T14:40:13.452Z,55.77
2019-02-14T14:42:52.314Z,55.72
2019-02-14T14:45:31.726Z,55.38
2019-02-14T14:48:00.161Z,55.76
2019-02-14T14:50:28.543Z,55.87
2019-02-14T14:52:56.926Z,56.09
2019-02-14T14:55:25.312Z,56.00
2019-02-14T14:57:53.695Z,55.82
2019-02-14T15:00:22.080Z,55.72
2019-02-14T15:02:50.471Z,55.18
2019-02-14T15:05:18.855Z,55.93
2019-02-14T15:07:47.250Z,56.03
2019-02-14T15:10:15.627Z,55.87
2019-02-14T15:12:44.011Z,55.88
2019-02-14T15:15:12.419Z,55.46
2019-02-14T15:17:40.802Z,55.31
2019-02-14T15:20:10.922Z,55.60
2019-02-14T15:22:39.310Z,55.71
2019-02-14T15:25:07.868Z,55.05
2019-02-14T15:27:36.259Z,55.57
2019-02-14T15:30:05.782Z,55.77
2019-02-14T15:32:34.174Z,55.90
2019-02-14T15:35:02.566Z,55.78
2019-02-14T15:37:30.945Z,55.81
2019-02-14T15:40:08.697Z,56.03
2019-02-14T15:42:29.486Z,56.33
2019-02-14T15:44:57.851Z,56.57
2019-02-14T15:47:26.260Z,56.52
2019-02-14T15:49:54.658Z,55.82
2019-02-14T15:52:23.050Z,56.02
2019-02-14T15:54:51.441Z,56.37
2019-02-14T15:57:20.454Z,56.61
2019-02-14T15:59:48.796Z,56.87
2019-02-14T16:02:17.225Z,56.42
2019-02-14T16:04:46.035Z,56.40
2019-02-14T16:07:15.333Z,56.47
2019-02-14T16:09:44.495Z,56.81
2019-02-14T16:12:12.889Z,56.51
2019-02-14T16:14:42.766Z,56.87
2019-02-14T16:17:13.657Z,57.28
2019-02-14T16:19:41.493Z,57.63
2019-02-14T16:22:09.890Z,58.04
2019-02-14T16:24:40.597Z,58.40
2019-02-14T16:27:08.407Z,58.71
2019-02-14T16:29:36.804Z,58.96
2019-02-14T16:32:05.191Z,59.19
2019-02-14T16:34:33.581Z,59.41
2019-02-14T16:37:01.968Z,59.71
2019-02-14T16:39:30.355Z,60.02
2019-02-14T16:41:58.738Z,60.23
2019-02-14T16:44:27.123Z,60.41
2019-02-14T16:46:55.511Z,60.61
2019-02-14T16:49:23.910Z,60.80
2019-02-14T16:51:52.298Z,61.02
2019-02-14T16:54:20.688Z,61.19
2019-02-14T16:56:49.067Z,61.42
2019-02-14T16:59:17.457Z,61.61
2019-02-14T17:01:45.853Z,61.82
2019-02-14T17:04:14.255Z,61.89
2019-02-14T17:06:42.647Z,62.11
2019-02-14T17:09:11.029Z,62.35
2019-02-14T17:11:39.434Z,62.41
2019-02-14T17:14:07.830Z,62.50
2019-02-14T17:16:36.206Z,62.78
2019-02-14T17:19:04.610Z,62.88
2019-02-14T17:21:33.152Z,62.92
2019-02-14T17:24:01.734Z,63.11
2019-02-14T17:26:30.123Z,63.15
2019-02-14T17:28:58.884Z,63.30
2019-02-14T17:31:27.265Z,63.42
2019-02-14T17:33:55.679Z,63.59
2019-02-14T17:36:24.055Z,63.65
2019-02-14T17:38:52.450Z,63.85
2019-02-14T17:41:20.869Z,63.99
2019-02-14T17:43:49.248Z,64.17
2019-02-14T17:46:17.642Z,64.29
2019-02-14T17:48:46.046Z,64.26
2019-02-14T17:51:14.427Z,64.39
2019-02-14T17:53:42.814Z,64.61
2019-02-14T17:56:11.200Z,64.82
2019-02-14T17:58:39.582Z,65.07
2019-02-14T18:01:08.012Z,65.28
2019-02-14T18:03:36.398Z,65.41
2019-02-14T18:06:04.791Z,65.47
2019-02-14T18:08:33.170Z,65.63
2019-02-14T18:11:01.560Z,65.80
2019-02-14T18:13:29.944Z,65.80
2019-02-14T18:15:58.335Z,65.92
2019-02-14T18:18:26.727Z,66.17
2019-02-14T18:21:04.128Z,66.10
2019-02-14T18:23:32.580Z,66.15
2019-02-14T18:26:00.979Z,66.39
2019-02-14T18:28:29.408Z,66.56
2019-02-14T18:30:57.811Z,66.66
2019-02-14T18:33:26.195Z,66.73
2019-02-14T18:35:54.591Z,66.79
2019-02-14T18:38:22.976Z,66.92
2019-02-14T18:40:51.362Z,67.15
2019-02-14T18:43:19.752Z,67.19
2019-02-14T18:45:48.148Z,67.26
2019-02-14T18:48:16.542Z,67.38
2019-02-14T18:50:44.940Z,67.40
2019-02-14T18:53:14.286Z,67.70
2019-02-14T18:55:42.675Z,67.71
2019-02-14T18:58:11.232Z,67.60
2019-02-14T19:00:39.624Z,67.52
2019-02-14T19:03:08.036Z,67.50
2019-02-14T19:05:36.428Z,67.62
2019-02-14T19:08:04.811Z,67.89
2019-02-14T19:10:33.208Z,67.80
2019-02-14T19:13:01.591Z,67.89
2019-02-14T19:15:29.983Z,67.97
2019-02-14T19:17:58.379Z,67.93
2019-02-14T19:20:26.780Z,67.93
2019-02-14T19:22:55.168Z,67.95
2019-02-14T19:25:23.551Z,68.11
2019-02-14T19:27:51.935Z,68.21
2019-02-14T19:30:20.339Z,68.21
2019-02-14T19:32:48.714Z,68.40
2019-02-14T19:35:23.162Z,68.38
2019-02-14T19:37:47.207Z,68.58
2019-02-14T19:40:15.583Z,68.65
2019-02-14T19:42:43.980Z,68.68
2019-02-14T19:45:12.636Z,68.88
2019-02-14T19:47:41.023Z,69.05
2019-02-14T19:50:11.248Z,69.25
2019-02-14T19:52:39.647Z,69.38
2019-02-14T19:55:09.567Z,69.40
2019-02-14T19:57:37.958Z,69.58
2019-02-14T20:00:14.486Z,69.55
2019-02-14T20:02:42.947Z,69.59
2019-02-14T20:05:11.605Z,69.48
2019-02-14T20:07:40.056Z,69.65
2019-02-14T20:10:12.780Z,69.66
2019-02-14T20:12:41.177Z,69.72
2019-02-14T20:15:15.467Z,69.87
2019-02-14T20:17:43.792Z,69.78
2019-02-14T20:20:12.305Z,69.77
2019-02-14T20:22:42.295Z,69.64
2019-02-14T20:25:19.476Z,69.76
2019-02-14T20:27:49.988Z,69.74
2019-02-14T20:30:17.988Z,69.88
2019-02-14T20:32:46.381Z,69.91
2019-02-14T20:35:14.766Z,69.91
2019-02-14T20:37:43.247Z,69.94
2019-02-14T20:40:11.625Z,70.11
2019-02-14T20:42:40.022Z,70.33
2019-02-14T20:45:13.652Z,70.30
2019-02-14T20:47:42.122Z,70.32
2019-02-14T20:50:12.560Z,70.40
2019-02-14T20:52:40.920Z,70.38
2019-02-14T20:55:15.043Z,70.56
2019-02-14T20:57:44.114Z,70.66
2019-02-14T21:00:17.169Z,70.70
2019-02-14T21:02:45.648Z,70.77
2019-02-14T21:05:14.176Z,70.78
2019-02-14T21:07:42.575Z,70.86
2019-02-14T21:10:11.048Z,70.87
2019-02-14T21:12:39.517Z,70.81
2019-02-14T21:15:09.503Z,70.77
2019-02-14T21:17:37.888Z,70.89
2019-02-14T21:20:09.495Z,70.85
2019-02-14T21:22:37.899Z,70.92
2019-02-14T21:25:08.045Z,71.00
2019-02-14T21:27:36.502Z,71.06
2019-02-14T21:30:08.007Z,71.09
2019-02-14T21:32:36.415Z,71.02
2019-02-14T21:35:05.941Z,70.97
2019-02-14T21:37:34.326Z,71.17
2019-02-14T21:40:03.189Z,71.29
2019-02-14T21:42:31.547Z,71.23
2019-02-14T21:44:59.938Z,71.14
2019-02-14T21:47:28.462Z,71.18
2019-02-14T21:49:56.865Z,71.26
2019-02-14T21:52:25.237Z,71.20
2019-02-14T21:54:53.675Z,71.15
2019-02-14T21:57:22.051Z,71.22
2019-02-14T21:59:50.432Z,71.21
2019-02-14T22:02:18.836Z,71.12
2019-02-14T22:04:47.212Z,71.17
2019-02-14T22:07:15.597Z,71.31
2019-02-14T22:09:43.978Z,71.41
2019-02-14T22:12:12.377Z,71.45
2019-02-14T22:14:41.197Z,71.49
2019-02-14T22:17:09.599Z,71.59
2019-02-14T22:19:37.958Z,71.54
2019-02-14T22:22:06.343Z,71.50
2019-02-14T22:24:34.734Z,71.61
2019-02-14T22:27:03.150Z,71.73
2019-02-14T22:29:32.433Z,71.79
2019-02-14T22:32:00.826Z,71.76
2019-02-14T22:34:29.216Z,71.78
2019-02-14T22:36:57.608Z,71.80
2019-02-14T22:39:26.477Z,71.82
2019-02-14T22:41:56.753Z,71.92
2019-02-14T22:44:25.181Z,71.78
2019-02-14T22:46:53.578Z,71.68
2019-02-14T22:49:21.986Z,71.58
2019-02-14T22:51:50.370Z,71.67
2019-02-14T22:54:18.766Z,71.68
2019-02-14T22:56:47.157Z,71.60
2019-02-14T22:59:15.559Z,71.58
2019-02-14T23:01:45.583Z,71.60
2019-02-14T23:04:13.967Z,71.58
2019-02-14T23:06:42.391Z,71.50
2019-02-14T23:09:10.790Z,71.42
2019-02-14T23:11:39.176Z,71.50
2019-02-14T23:14:07.564Z,71.53
2019-02-14T23:16:35.958Z,71.70
2019-02-14T23:19:04.349Z,71.79
2019-02-14T23:21:32.739Z,71.88
2019-02-14T23:24:01.129Z,71.89
2019-02-14T23:26:29.524Z,72.14
2019-02-14T23:28:57.970Z,72.01
2019-02-14T23:31:26.311Z,72.03
2019-02-14T23:33:54.692Z,72.23
2019-02-14T23:36:23.083Z,72.24
2019-02-14T23:38:51.479Z,72.10
2019-02-14T23:41:19.873Z,72.29
2019-02-14T23:43:48.325Z,72.02
2019-02-14T23:46:16.717Z,72.01
2019-02-14T23:48:45.109Z,71.97
2019-02-14T23:51:13.503Z,71.86
2019-02-14T23:53:41.895Z,71.88
2019-02-14T23:56:10.292Z,71.72
2019-02-14T23:58:38.682Z,71.77
